sensor_id;sensor_type;location;lat;lon;timestamp;temperature;humidity
10386;DHT22;34307;51.332;12.334;2023-02-15T06:06:15;0.00;99.90
10386;DHT22;34307;51.332;12.334;2023-02-15T06:08:43;-0.10;99.90
10386;DHT22;34307;51.332;12.334;2023-02-15T06:11:11;-0.10;99.90
10386;DHT22;34307;51.332;12.334;2023-02-15T06:13:39;0.00;99.90
10386;DHT22;34307;51.332;12.334;2023-02-15T06:16:07;-0.10;99.90
10386;DHT22;34307;51.332;12.334;2023-02-15T06:18:35;-0.20;99.90
10386;DHT22;34307;51.332;12.334;2023-02-15T06:21:02;-0.20;99.90
10386;DHT22;34307;51.332;12.334;2023-02-15T06:23:32;-0.30;99.90
10386;DHT22;34307;51.332;12.334;2023-02-15T06:26:00;-0.30;99.90
10386;DHT22;34307;51.332;12.334;2023-02-15T06:28:28;-0.20;99.90
10386;DHT22;34307;51.332;12.334;2023-02-15T06:30:55;-0.20;99.90
10386;DHT22;34307;51.332;12.334;2023-02-15T15:10:38;13.70;65.20
10386;DHT22;34307;51.332;12.334;2023-02-15T15:13:37;14.10;63.10
10386;DHT22;34307;51.332;12.334;2023-02-15T15:16:29;14.80;56.60
10386;DHT22;34307;51.332;12.334;2023-02-15T15:18:57;14.80;57.20
10386;DHT22;34307;51.332;12.334;2023-02-15T15:21:53;14.90;52.60
10386;DHT22;34307;51.332;12.334;2023-02-15T15:24:47;14.60;51.10
10386;DHT22;34307;51.332;12.334;2023-02-15T15:27:46;14.50;50.90
10386;DHT22;34307;51.332;12.334;2023-02-15T15:45:46;13.30;50.20
10386;DHT22;34307;51.332;12.334;2023-02-15T15:48:29;12.40;52.50
10386;DHT22;34307;51.332;12.334;2023-02-15T15:51:00;11.90;55.00
10386;DHT22;34307;51.332;12.334;2023-02-15T15:53:33;11.70;57.00
10386;DHT22;34307;51.332;12.334;2023-02-15T15:56:05;11.50;58.20
10386;DHT22;34307;51.332;12.334;2023-02-15T15:58:42;11.10;59.30
10386;DHT22;34307;51.332;12.334;2023-02-15T16:01:12;10.90;60.20
10386;DHT22;34307;51.332;12.334;2023-02-15T16:03:49;10.70;61.30
10386;DHT22;34307;51.332;12.334;2023-02-15T16:06:28;10.50;64.00
10386;DHT22;34307;51.332;12.334;2023-02-15T16:08:56;10.40;65.60
10386;DHT22;34307;51.332;12.334;2023-02-15T16:11:27;10.10;66.90
10386;DHT22;34307;51.332;12.334;2023-02-15T16:13:56;9.90;71.20
10386;DHT22;34307;51.332;12.334;2023-02-15T16:16:27;9.70;72.30
10386;DHT22;34307;51.332;12.334;2023-02-15T16:36:21;8.80;85.00
10386;DHT22;34307;51.332;12.334;2023-02-15T16:39:17;8.80;81.80
10386;DHT22;34307;51.332;12.334;2023-02-15T16:41:45;8.70;82.50
10386;DHT22;34307;51.332;12.334;2023-02-15T16:44:17;8.60;83.20
10386;DHT22;34307;51.332;12.334;2023-02-15T16:46:47;8.60;83.70
10386;DHT22;34307;51.332;12.334;2023-02-15T16:49:19;8.40;84.50
10386;DHT22;34307;51.332;12.334;2023-02-15T16:51:56;8.10;85.40
10386;DHT22;34307;51.332;12.334;2023-02-15T16:54:25;8.00;87.30
10386;DHT22;34307;51.332;12.334;2023-02-15T16:56:55;7.80;87.40
10386;DHT22;34307;51.332;12.334;2023-02-15T16:59:30;7.80;89.70
10386;DHT22;34307;51.332;12.334;2023-02-15T17:02:04;7.90;90.20
10386;DHT22;34307;51.332;12.334;2023-02-15T17:04:32;8.00;90.00
10386;DHT22;34307;51.332;12.334;2023-02-15T17:07:14;8.10;89.00
10386;DHT22;34307;51.332;12.334;2023-02-15T17:09:49;8.10;89.90
10386;DHT22;34307;51.332;12.334;2023-02-15T17:12:45;8.10;89.80
10386;DHT22;34307;51.332;12.334;2023-02-15T17:15:27;8.00;90.40
10386;DHT22;34307;51.332;12.334;2023-02-15T17:17:58;7.80;90.60
10386;DHT22;34307;51.332;12.334;2023-02-15T17:20:26;7.90;90.80
10386;DHT22;34307;51.332;12.334;2023-02-15T17:22:56;7.70;90.90
10386;DHT22;34307;51.332;12.334;2023-02-15T17:25:28;7.60;91.80
10386;DHT22;34307;51.332;12.334;2023-02-15T17:28:00;7.70;92.30
10386;DHT22;34307;51.332;12.334;2023-02-15T17:30:29;7.70;92.50
10386;DHT22;34307;51.332;12.334;2023-02-15T17:33:00;7.80;92.30
10386;DHT22;34307;51.332;12.334;2023-02-15T17:35:29;7.60;92.60
10386;DHT22;34307;51.332;12.334;2023-02-15T17:38:04;7.60;92.80
10386;DHT22;34307;51.332;12.334;2023-02-15T17:40:34;7.40;93.30
10386;DHT22;34307;51.332;12.334;2023-02-15T17:43:03;7.50;94.10
10386;DHT22;34307;51.332;12.334;2023-02-15T17:45:33;7.60;95.00
10386;DHT22;34307;51.332;12.334;2023-02-15T17:48:03;7.60;95.20
